Time;durP1;ratioP1;P1;durP2;ratioP2;P2;SDS_P1;SDS_P2;PMS_P1;PMS_P2;Temp;Humidity;BMP_temperature;BMP_pressure;BME280_temperature;BME280_humidity;BME280_pressure;Samples;Min_cycle;Max_cycle;Signal;HPM_P1;HPM_P2
2023/07/16 00:00:00;;;;;;;;;;;;;;;34.70;28.42;97978.91;5114982;28;19916;-88
2023/07/16 00:02:26;;;;;;;;;;;;;;;34.64;28.24;97981.72;5107326;28;19916;-87
2023/07/16 00:04:52;;;;;;;;;;;;;;;34.31;28.67;97992.09;5117692;28;19918;-87
2023/07/16 00:07:18;;;;;;;;;;;;;;;34.49;28.46;97983.94;5116653;28;20291;-88
2023/07/16 00:09:44;;;;;;;;;;;;;;;34.36;28.41;97979.91;5117419;28;19923;-87
2023/07/16 00:12:10;;;;;;;;;;;;;;;34.56;28.20;97980.63;5115340;28;19922;-88
2023/07/16 00:14:36;;;;;;;;;;;;;;;34.44;28.21;97970.41;5078841;28;20276;-87
2023/07/16 00:17:02;;;;;;;;;;;;;;;34.65;27.96;97974.72;5097341;28;20256;-87
2023/07/16 00:19:28;;;;;;;;;;;;;;;34.54;28.15;97971.78;5095475;28;19917;-87
2023/07/16 00:21:54;;;;;;;;;;;;;;;34.26;28.62;97970.78;5096536;28;19916;-87
2023/07/16 00:24:20;;;;;;;;;;;;;;;34.32;28.48;97971.63;5097061;28;19916;-87
2023/07/16 00:26:46;;;;;;;;;;;;;;;34.37;28.55;97972.94;5117087;28;19916;-87
2023/07/16 00:29:12;;;;;;;;;;;;;;;34.52;28.33;97965.00;5117416;28;20311;-87
2023/07/16 00:31:38;;;;;;;;;;;;;;;33.95;29.15;97971.56;5117778;28;19923;-87
2023/07/16 00:34:04;;;;;;;;;;;;;;;34.15;28.84;97961.34;5113395;28;19916;-87
2023/07/16 00:36:30;;;;;;;;;;;;;;;33.85;29.57;97960.81;5094722;28;19939;-87
2023/07/16 00:38:57;;;;;;;;;;;;;;;34.10;28.75;97954.31;5096505;28;19916;-88
2023/07/16 00:41:23;;;;;;;;;;;;;;;34.53;28.21;97960.91;5096567;28;20372;-87
2023/07/16 00:43:49;;;;;;;;;;;;;;;34.57;28.25;97955.72;5107724;28;19945;-87
2023/07/16 00:46:16;;;;;;;;;;;;;;;34.69;28.06;97955.28;5116779;28;19916;-87
2023/07/16 00:48:43;;;;;;;;;;;;;;;34.64;28.03;97952.41;5116772;28;20428;-87
2023/07/16 00:51:09;;;;;;;;;;;;;;;34.65;27.98;97946.19;5112658;28;19917;-87
2023/07/16 00:53:35;;;;;;;;;;;;;;;34.08;28.75;97957.69;5107434;28;20359;-87
2023/07/16 00:56:01;;;;;;;;;;;;;;;34.14;28.82;97945.56;5102387;28;20006;-88
2023/07/16 00:58:27;;;;;;;;;;;;;;;34.12;28.89;97954.63;5098022;27;19916;-87
2023/07/16 01:00:53;;;;;;;;;;;;;;;34.02;28.86;97950.38;5116722;28;19960;-87
2023/07/16 01:03:19;;;;;;;;;;;;;;;34.11;28.81;97950.19;5116190;28;19916;-87
2023/07/16 01:05:52;;;;;;;;;;;;;;;33.74;29.56;97950.13;5116025;28;19924;-87
2023/07/16 01:08:21;;;;;;;;;;;;;;;33.87;29.42;97941.94;5092698;28;19921;-87
2023/07/16 01:10:48;;;;;;;;;;;;;;;33.76;29.40;97941.84;5109078;28;19922;-87
2023/07/16 01:13:14;;;;;;;;;;;;;;;33.54;29.56;97935.94;5116460;28;19919;-88
2023/07/16 01:15:40;;;;;;;;;;;;;;;33.84;29.37;97937.25;5116553;28;20002;-87
2023/07/16 01:18:06;;;;;;;;;;;;;;;34.11;28.89;97938.81;5116164;28;19959;-88
2023/07/16 01:20:32;;;;;;;;;;;;;;;34.03;28.83;97934.84;5115962;28;19915;-87
2023/07/16 01:23:09;;;;;;;;;;;;;;;33.79;29.31;97932.31;5116129;28;20371;-88
2023/07/16 01:25:54;;;;;;;;;;;;;;;33.69;29.58;97936.59;5104959;28;19916;-87
2023/07/16 01:28:23;;;;;;;;;;;;;;;33.93;29.09;97928.53;5113441;28;20010;-88
2023/07/16 01:30:51;;;;;;;;;;;;;;;34.01;29.10;97940.25;5116141;28;20291;-87
2023/07/16 01:33:19;;;;;;;;;;;;;;;34.02;28.96;97930.41;5113189;28;19977;-87
2023/07/16 01:35:47;;;;;;;;;;;;;;;34.04;29.05;97922.94;5113804;28;19924;-88
2023/07/16 01:38:15;;;;;;;;;;;;;;;34.08;28.66;97912.09;5111576;28;19920;-87
2023/07/16 01:40:41;;;;;;;;;;;;;;;34.22;28.50;97913.22;5102200;28;20027;-87
2023/07/16 01:43:07;;;;;;;;;;;;;;;33.87;29.02;97916.31;5103250;28;19916;-88
2023/07/16 01:45:34;;;;;;;;;;;;;;;34.03;28.75;97918.53;5114743;28;20418;-87
2023/07/16 01:48:07;;;;;;;;;;;;;;;33.80;29.11;97911.06;5115513;28;20363;-87
2023/07/16 01:50:33;;;;;;;;;;;;;;;33.87;29.45;97907.75;5115644;28;20412;-87
2023/07/16 01:52:59;;;;;;;;;;;;;;;34.03;28.92;97901.44;5097379;28;19916;-87
2023/07/16 01:55:25;;;;;;;;;;;;;;;33.93;29.17;97907.81;5114206;28;19938;-87
2023/07/16 01:57:51;;;;;;;;;;;;;;;33.93;28.80;97908.59;5115802;28;19961;-87
2023/07/16 02:00:17;;;;;;;;;;;;;;;34.21;28.76;97905.97;5102214;28;19959;-87
2023/07/16 02:02:43;;;;;;;;;;;;;;;33.88;28.97;97902.84;5115105;28;20010;-87
2023/07/16 02:05:09;;;;;;;;;;;;;;;33.84;28.98;97896.59;5114856;28;19966;-87
2023/07/16 02:07:35;;;;;;;;;;;;;;;34.07;28.60;97898.38;5103804;28;19916;-87
2023/07/16 02:10:02;;;;;;;;;;;;;;;33.94;29.02;97906.50;5095062;28;19928;-87
2023/07/16 02:12:28;;;;;;;;;;;;;;;34.06;28.51;97908.19;5094909;28;20402;-88
2023/07/16 02:14:54;;;;;;;;;;;;;;;34.03;28.79;97904.28;5094887;28;20364;-88
2023/07/16 02:17:20;;;;;;;;;;;;;;;34.08;28.76;97914.94;5087546;28;20014;-88
2023/07/16 02:19:46;;;;;;;;;;;;;;;34.11;28.70;97907.44;5114668;28;19926;-88
2023/07/16 02:22:12;;;;;;;;;;;;;;;34.13;28.60;97902.03;5115032;28;20010;-88
2023/07/16 02:24:38;;;;;;;;;;;;;;;34.06;28.78;97900.44;5099856;28;20406;-88
2023/07/16 02:27:05;;;;;;;;;;;;;;;33.72;29.28;97912.03;5076042;28;20303;-88
2023/07/16 02:29:31;;;;;;;;;;;;;;;33.92;29.58;97914.78;5094476;28;20041;-87
2023/07/16 02:31:57;;;;;;;;;;;;;;;33.97;29.15;97905.50;5103203;28;19916;-87
2023/07/16 02:34:23;;;;;;;;;;;;;;;33.81;29.54;97912.63;5101388;28;19997;-87
2023/07/16 02:36:49;;;;;;;;;;;;;;;33.93;29.16;97910.66;5113951;28;19923;-88
2023/07/16 02:39:15;;;;;;;;;;;;;;;33.90;29.16;97912.44;5114734;28;19916;-87
2023/07/16 02:41:41;;;;;;;;;;;;;;;33.90;29.09;97906.75;5096546;28;20287;-88
2023/07/16 02:44:08;;;;;;;;;;;;;;;33.93;28.99;97914.28;5114684;28;19923;-88
2023/07/16 02:46:34;;;;;;;;;;;;;;;33.89;29.33;97907.25;5114400;28;20457;-88
2023/07/16 02:49:00;;;;;;;;;;;;;;;33.77;29.07;97903.53;5114697;28;19916;-88
2023/07/16 02:51:26;;;;;;;;;;;;;;;33.76;29.45;97906.88;5101105;28;20287;-88
2023/07/16 02:53:52;;;;;;;;;;;;;;;33.85;29.31;97904.63;5113620;28;19922;-88
2023/07/16 02:56:18;;;;;;;;;;;;;;;33.91;29.06;97907.53;5114581;28;19915;-88
2023/07/16 02:58:44;;;;;;;;;;;;;;;34.01;28.99;97897.50;5114108;28;19989;-87
2023/07/16 03:01:11;;;;;;;;;;;;;;;33.96;29.21;97901.88;5110090;28;19924;-87
2023/07/16 03:03:37;;;;;;;;;;;;;;;33.76;29.25;97901.97;5114237;28;20383;-87
2023/07/16 03:06:03;;;;;;;;;;;;;;;33.55;29.88;97900.47;5114318;28;19931;-87
2023/07/16 03:08:29;;;;;;;;;;;;;;;33.34;30.18;97902.59;5112198;28;19920;-87
2023/07/16 03:10:56;;;;;;;;;;;;;;;33.20;30.27;97899.84;5114282;28;19916;-88
2023/07/16 03:13:22;;;;;;;;;;;;;;;33.30;29.88;97906.94;5114498;28;20378;-88
2023/07/16 03:15:48;;;;;;;;;;;;;;;33.57;29.54;97903.59;5114048;28;20317;-87
2023/07/16 03:18:15;;;;;;;;;;;;;;;33.67;29.19;97902.16;5109867;28;19946;-88
2023/07/16 03:20:41;;;;;;;;;;;;;;;33.70;29.34;97909.66;5109412;28;19919;-86
2023/07/16 03:23:07;;;;;;;;;;;;;;;33.71;29.55;97907.59;5106180;28;19921;-87
2023/07/16 03:25:33;;;;;;;;;;;;;;;33.69;29.22;97918.72;5102468;28;20406;-87
2023/07/16 03:27:59;;;;;;;;;;;;;;;33.47;29.56;97913.56;5108741;28;19920;-87
2023/07/16 03:30:25;;;;;;;;;;;;;;;33.05;30.40;97916.25;5093465;28;19923;-87
2023/07/16 03:32:51;;;;;;;;;;;;;;;33.50;29.85;97908.94;5100304;28;19916;-88
2023/07/16 03:35:17;;;;;;;;;;;;;;;33.85;29.41;97910.34;5113824;28;19935;-88
2023/07/16 03:37:43;;;;;;;;;;;;;;;34.13;28.72;97912.63;5113887;28;19920;-87
2023/07/16 03:40:16;;;;;;;;;;;;;;;34.03;29.36;97920.59;5113778;28;19916;-87
2023/07/16 03:42:42;;;;;;;;;;;;;;;34.47;29.03;97912.34;5113207;28;20340;-87
2023/07/16 03:45:09;;;;;;;;;;;;;;;34.75;28.46;97909.69;5105941;28;19916;-87
2023/07/16 03:47:35;;;;;;;;;;;;;;;35.05;27.92;97915.81;5093597;28;20356;-87
2023/07/16 03:50:02;;;;;;;;;;;;;;;35.71;27.29;97913.09;5104098;28;19920;-88
2023/07/16 03:52:28;;;;;;;;;;;;;;;35.83;26.72;97911.81;5109728;28;20015;-88
2023/07/16 03:54:54;;;;;;;;;;;;;;;36.29;26.14;97910.53;5095925;28;20399;-88
2023/07/16 03:57:21;;;;;;;;;;;;;;;36.37;26.51;97912.31;5094225;28;20356;-88
2023/07/16 03:59:47;;;;;;;;;;;;;;;36.81;26.69;97907.81;5098763;28;20011;-88
2023/07/16 04:02:13;;;;;;;;;;;;;;;37.11;25.90;97915.25;5113477;28;19915;-87
2023/07/16 04:04:39;;;;;;;;;;;;;;;36.87;26.04;97906.50;5115113;28;20311;-87
2023/07/16 04:07:05;;;;;;;;;;;;;;;37.23;25.74;97913.09;5117355;28;20402;-88
2023/07/16 04:09:31;;;;;;;;;;;;;;;37.24;26.19;97915.44;5117468;28;20324;-88
2023/07/16 04:11:57;;;;;;;;;;;;;;;37.54;25.20;97909.03;5117238;28;20053;-88
2023/07/16 04:14:23;;;;;;;;;;;;;;;37.52;25.46;97906.72;5116599;28;19958;-87
2023/07/16 04:16:49;;;;;;;;;;;;;;;37.88;24.90;97910.41;5116272;28;19955;-88
2023/07/16 04:19:15;;;;;;;;;;;;;;;37.88;25.37;97916.88;5117104;28;20408;-87
2023/07/16 04:21:41;;;;;;;;;;;;;;;38.22;24.25;97910.84;5109065;28;19956;-88
2023/07/16 04:24:07;;;;;;;;;;;;;;;38.25;24.78;97910.59;5096429;28;20299;-88
2023/07/16 04:26:33;;;;;;;;;;;;;;;38.29;25.61;97916.81;5096846;28;19916;-88
2023/07/16 04:28:59;;;;;;;;;;;;;;;38.51;25.50;97928.06;5078136;28;19917;-88
2023/07/16 04:31:25;;;;;;;;;;;;;;;38.81;24.47;97922.28;5096545;28;19948;-88
2023/07/16 04:33:51;;;;;;;;;;;;;;;38.99;23.95;97920.75;5102382;28;19921;-88
2023/07/16 04:36:17;;;;;;;;;;;;;;;38.91;24.43;97920.59;5116519;28;19923;-87
2023/07/16 04:38:43;;;;;;;;;;;;;;;39.10;25.74;97921.41;5116575;28;19919;-87
2023/07/16 04:41:09;;;;;;;;;;;;;;;39.30;24.07;97931.63;5116952;28;20371;-88
2023/07/16 04:43:35;;;;;;;;;;;;;;;39.49;25.43;97934.50;5115694;28;20306;-88
2023/07/16 04:46:01;;;;;;;;;;;;;;;39.58;23.89;97940.66;5110540;28;19920;-88
2023/07/16 04:48:27;;;;;;;;;;;;;;;39.66;25.23;97944.44;5110024;28;19919;-89
2023/07/16 04:50:53;;;;;;;;;;;;;;;39.63;25.36;97947.66;5107955;28;20351;-88
2023/07/16 04:53:19;;;;;;;;;;;;;;;39.64;26.10;97946.31;5095376;28;20440;-87
2023/07/16 04:55:45;;;;;;;;;;;;;;;39.73;26.06;97948.78;5112675;28;20383;-87
2023/07/16 04:58:11;;;;;;;;;;;;;;;39.71;24.69;97954.31;5112021;28;19920;-85
2023/07/16 05:00:38;;;;;;;;;;;;;;;39.77;25.53;97955.00;5111347;28;21711;-85
2023/07/16 05:03:04;;;;;;;;;;;;;;;39.76;25.54;97964.94;5107827;28;20455;-87
2023/07/16 05:05:29;;;;;;;;;;;;;;;39.93;25.11;97966.22;5109418;28;19934;-88
2023/07/16 05:07:56;;;;;;;;;;;;;;;39.99;26.06;97971.91;5113852;28;19995;-88
2023/07/16 05:10:22;;;;;;;;;;;;;;;39.95;26.15;97975.13;5116256;28;19922;-88
2023/07/16 05:12:48;;;;;;;;;;;;;;;39.96;25.45;97976.66;5102393;28;19916;-88
2023/07/16 05:15:14;;;;;;;;;;;;;;;40.12;25.81;97974.84;5095319;28;19920;-85
2023/07/16 05:17:40;;;;;;;;;;;;;;;40.13;25.40;97970.66;5103284;28;19916;-88
2023/07/16 05:20:06;;;;;;;;;;;;;;;40.11;25.47;97976.19;5111725;28;20432;-86
2023/07/16 05:22:33;;;;;;;;;;;;;;;40.17;25.13;97976.88;5114623;28;19922;-83
2023/07/16 05:24:59;;;;;;;;;;;;;;;40.11;24.91;97986.91;5105173;28;19927;-85
2023/07/16 05:27:25;;;;;;;;;;;;;;;40.18;23.54;97978.44;5095183;28;19916;-84
2023/07/16 05:29:51;;;;;;;;;;;;;;;40.24;23.66;97989.84;5105923;28;20018;-86
2023/07/16 05:32:17;;;;;;;;;;;;;;;40.10;24.60;97983.25;5103671;28;20007;-86
2023/07/16 05:34:43;;;;;;;;;;;;;;;40.19;24.94;97979.22;5102796;28;20002;-87
2023/07/16 05:37:09;;;;;;;;;;;;;;;40.33;24.37;97990.19;5090021;28;19920;-87
2023/07/16 05:39:35;;;;;;;;;;;;;;;40.44;23.92;97984.28;5079628;28;19959;-87
2023/07/16 05:42:03;;;;;;;;;;;;;;;40.45;24.33;97982.94;5101964;28;19916;-87
2023/07/16 05:44:29;;;;;;;;;;;;;;;40.36;24.04;97980.47;5115377;28;19916;-87
2023/07/16 05:46:55;;;;;;;;;;;;;;;40.44;24.22;97987.19;5112219;28;19920;-87
2023/07/16 05:49:21;;;;;;;;;;;;;;;40.50;23.67;97990.72;5113685;28;19919;-87
2023/07/16 05:51:48;;;;;;;;;;;;;;;40.66;23.83;97997.50;5103822;28;19973;-87
2023/07/16 05:54:14;;;;;;;;;;;;;;;40.69;23.48;97988.53;5097617;28;20420;-87
2023/07/16 05:56:40;;;;;;;;;;;;;;;40.75;25.01;97997.09;5114749;28;19919;-87
2023/07/16 05:59:06;;;;;;;;;;;;;;;40.95;24.54;97999.34;5103081;28;19920;-87
2023/07/16 06:01:32;;;;;;;;;;;;;;;41.13;24.15;98001.31;5102667;28;19958;-87
2023/07/16 06:03:58;;;;;;;;;;;;;;;41.30;24.70;97992.38;5114895;28;20268;-87
2023/07/16 06:06:28;;;;;;;;;;;;;;;41.65;24.07;97997.63;5114750;28;20375;-87
2023/07/16 06:08:54;;;;;;;;;;;;;;;41.81;23.04;97996.50;5114666;28;19951;-87
2023/07/16 06:11:20;;;;;;;;;;;;;;;41.49;23.88;98000.88;5115086;28;19961;-87
2023/07/16 06:13:46;;;;;;;;;;;;;;;41.68;23.41;98002.31;5109245;28;20039;-87
2023/07/16 06:16:12;;;;;;;;;;;;;;;42.31;23.43;97997.44;5114881;28;19916;-87
2023/07/16 06:18:38;;;;;;;;;;;;;;;42.49;21.37;97994.38;5112640;28;19962;-87
2023/07/16 06:21:04;;;;;;;;;;;;;;;42.44;21.11;97992.38;5098583;28;19926;-87
2023/07/16 06:23:30;;;;;;;;;;;;;;;42.35;22.48;98000.75;5114687;28;19923;-87
2023/07/16 06:25:57;;;;;;;;;;;;;;;41.92;22.56;97998.34;5110124;28;20337;-87
2023/07/16 06:28:23;;;;;;;;;;;;;;;42.18;21.01;97998.28;5108487;28;19927;-87
2023/07/16 06:30:49;;;;;;;;;;;;;;;42.31;19.67;98000.34;5113572;28;19915;-87
2023/07/16 06:33:15;;;;;;;;;;;;;;;42.29;19.86;98008.78;5114430;28;19923;-86
2023/07/16 06:35:44;;;;;;;;;;;;;;;41.89;20.12;97996.59;5113984;28;19923;-87
2023/07/16 06:38:10;;;;;;;;;;;;;;;41.99;21.35;98003.44;5113426;28;19993;-87
2023/07/16 06:40:36;;;;;;;;;;;;;;;42.22;21.76;98003.72;5114338;28;19916;-87
2023/07/16 06:43:01;;;;;;;;;;;;;;;42.35;21.15;97998.66;5095477;28;19920;-87
2023/07/16 06:45:27;;;;;;;;;;;;;;;42.58;20.92;98008.31;5114231;28;19923;-87
2023/07/16 06:47:53;;;;;;;;;;;;;;;42.88;20.15;98019.31;5105617;28;19920;-87
2023/07/16 06:50:20;;;;;;;;;;;;;;;41.69;21.04;98018.28;5087769;28;19920;-88
2023/07/16 06:52:46;;;;;;;;;;;;;;;41.75;21.93;98018.94;5103435;28;20014;-87
2023/07/16 06:55:12;;;;;;;;;;;;;;;42.03;21.64;98018.31;5114184;28;19951;-88
2023/07/16 06:57:38;;;;;;;;;;;;;;;42.00;21.09;98025.19;5113864;28;20404;-87
2023/07/16 07:00:05;;;;;;;;;;;;;;;42.19;20.51;98028.69;5113827;28;19946;-87
2023/07/16 07:02:31;;;;;;;;;;;;;;;42.47;20.62;98031.69;5112017;28;19922;-87
2023/07/16 07:04:58;;;;;;;;;;;;;;;42.38;19.92;98034.28;5106147;28;20015;-88
2023/07/16 07:07:24;;;;;;;;;;;;;;;42.17;21.38;98028.50;5108527;28;19959;-88
2023/07/16 07:09:50;;;;;;;;;;;;;;;42.44;19.82;98021.25;5110681;28;19982;-88
2023/07/16 07:12:16;;;;;;;;;;;;;;;42.50;20.12;98030.56;5102572;28;20008;-89
2023/07/16 07:14:42;;;;;;;;;;;;;;;42.67;20.37;98016.47;5103560;28;19970;-89
2023/07/16 07:17:08;;;;;;;;;;;;;;;42.16;22.13;98018.28;5114173;28;19912;-90
2023/07/16 07:19:34;;;;;;;;;;;;;;;42.01;23.00;98021.72;5103244;28;19935;-91
2023/07/16 07:22:00;;;;;;;;;;;;;;;41.76;20.62;98026.25;5099657;28;20394;-90
2023/07/16 07:24:26;;;;;;;;;;;;;;;42.01;20.83;98029.63;5108402;28;19927;-91
2023/07/16 07:26:52;;;;;;;;;;;;;;;42.01;20.57;98029.63;5101798;28;19920;-91
2023/07/16 07:29:18;;;;;;;;;;;;;;;42.18;20.90;98032.13;5105229;28;19919;-91
2023/07/16 07:31:44;;;;;;;;;;;;;;;41.82;22.53;98034.78;5105012;28;19946;-90
2023/07/16 07:34:10;;;;;;;;;;;;;;;41.50;21.04;98034.91;5109689;28;20379;-91
2023/07/16 07:36:36;;;;;;;;;;;;;;;41.38;21.45;98027.06;5108794;28;19924;-90
2023/07/16 07:39:02;;;;;;;;;;;;;;;42.03;21.39;98052.16;5110173;28;20375;-89
2023/07/16 07:41:28;;;;;;;;;;;;;;;42.36;21.24;98051.38;5106939;28;19920;-89
2023/07/16 07:43:54;;;;;;;;;;;;;;;42.31;20.86;98049.41;5095785;28;19935;-89
2023/07/16 07:46:20;;;;;;;;;;;;;;;42.02;21.02;98062.91;5117121;28;19916;-89
2023/07/16 07:48:46;;;;;;;;;;;;;;;40.60;21.51;98049.44;5117742;28;19916;-89
2023/07/16 07:51:12;;;;;;;;;;;;;;;40.52;23.23;98068.66;5116998;28;20302;-89
2023/07/16 07:53:38;;;;;;;;;;;;;;;40.42;21.94;98070.41;5117689;28;20378;-88
2023/07/16 07:56:04;;;;;;;;;;;;;;;40.99;22.28;98082.53;5114408;28;19930;-87
2023/07/16 07:58:30;;;;;;;;;;;;;;;41.13;21.46;98087.78;5111432;28;20002;-87
2023/07/16 08:00:56;;;;;;;;;;;;;;;40.47;21.81;98086.06;5100064;28;19924;-87
2023/07/16 08:03:22;;;;;;;;;;;;;;;39.69;23.77;98104.34;5106944;28;19923;-88
2023/07/16 08:05:49;;;;;;;;;;;;;;;39.45;23.91;98100.69;5105755;28;19928;-89
2023/07/16 08:08:15;;;;;;;;;;;;;;;39.69;22.77;98107.22;5113044;28;19927;-88
2023/07/16 08:10:42;;;;;;;;;;;;;;;39.95;23.34;98106.63;5108590;28;19968;-88
2023/07/16 08:13:08;;;;;;;;;;;;;;;39.17;23.41;98118.25;5105427;28;19927;-91
2023/07/16 08:15:34;;;;;;;;;;;;;;;38.91;23.71;98115.84;5079949;28;20322;-87
2023/07/16 08:18:00;;;;;;;;;;;;;;;38.48;24.28;98112.81;5095847;28;19916;-89
2023/07/16 08:20:26;;;;;;;;;;;;;;;38.88;24.06;98119.81;5109118;28;19916;-87
2023/07/16 08:22:52;;;;;;;;;;;;;;;39.60;23.30;98116.25;5111148;28;19927;-89
2023/07/16 08:25:18;;;;;;;;;;;;;;;39.93;23.64;98115.78;5104374;28;19916;-88
2023/07/16 08:27:44;;;;;;;;;;;;;;;39.60;23.87;98115.44;5109706;28;19938;-90
2023/07/16 08:30:10;;;;;;;;;;;;;;;38.76;24.52;98118.34;5111531;28;19912;-91
2023/07/16 08:32:37;;;;;;;;;;;;;;;39.29;24.27;98114.72;5114652;28;19919;-89
2023/07/16 08:35:03;;;;;;;;;;;;;;;39.26;24.04;98121.53;5107652;28;20391;-89
2023/07/16 08:37:29;;;;;;;;;;;;;;;39.80;23.94;98124.34;5105509;28;19924;-90
2023/07/16 08:39:55;;;;;;;;;;;;;;;39.03;25.10;98125.13;5103147;28;20386;-88
2023/07/16 08:42:21;;;;;;;;;;;;;;;39.99;23.52;98130.91;5096994;28;19923;-88
2023/07/16 08:44:50;;;;;;;;;;;;;;;40.47;22.48;98118.47;5112979;28;19920;-88
2023/07/16 08:47:16;;;;;;;;;;;;;;;40.82;22.72;98128.88;5103399;28;19965;-89
2023/07/16 08:49:49;;;;;;;;;;;;;;;40.00;23.14;98126.69;5109603;28;20378;-91
2023/07/16 08:52:16;;;;;;;;;;;;;;;39.86;23.19;98130.03;5106715;28;19924;-89
2023/07/16 08:54:42;;;;;;;;;;;;;;;39.65;22.98;98129.78;5096403;28;19927;-88
2023/07/16 08:57:09;;;;;;;;;;;;;;;40.07;23.41;98124.56;5099658;28;19920;-89
2023/07/16 08:59:35;;;;;;;;;;;;;;;40.50;22.37;98119.47;5110240;28;19927;-89
2023/07/16 09:02:02;;;;;;;;;;;;;;;40.81;23.03;98115.84;5110741;28;19919;-89
2023/07/16 09:04:29;;;;;;;;;;;;;;;40.40;23.26;98121.19;5098361;28;20048;-89
2023/07/16 09:06:55;;;;;;;;;;;;;;;40.44;23.66;98116.69;5103469;28;20384;-87
2023/07/16 09:09:22;;;;;;;;;;;;;;;39.89;23.54;98123.16;5107865;28;19920;-90
2023/07/16 09:11:48;;;;;;;;;;;;;;;39.66;23.80;98116.94;5108368;28;20402;-88
2023/07/16 09:14:16;;;;;;;;;;;;;;;38.85;24.10;98114.34;5112643;28;19924;-90
2023/07/16 09:16:42;;;;;;;;;;;;;;;39.86;23.27;98121.41;5099358;28;19922;-90
2023/07/16 09:19:13;;;;;;;;;;;;;;;40.49;22.44;98112.19;5097416;28;19963;-88
2023/07/16 09:21:39;;;;;;;;;;;;;;;40.30;22.98;98117.16;5102261;28;20391;-89
2023/07/16 09:24:07;;;;;;;;;;;;;;;40.68;23.15;98113.69;5092124;28;19926;-88
2023/07/16 09:26:33;;;;;;;;;;;;;;;41.25;21.59;98109.28;5116210;28;19961;-88
2023/07/16 09:28:59;;;;;;;;;;;;;;;41.76;22.29;98114.88;5109346;28;20474;-89
2023/07/16 09:31:25;;;;;;;;;;;;;;;41.33;20.84;98113.09;5103695;28;19924;-88
2023/07/16 09:33:51;;;;;;;;;;;;;;;41.45;21.57;98113.69;5107053;28;19920;-89
2023/07/16 09:36:26;;;;;;;;;;;;;;;41.31;21.50;98115.75;5105374;28;19924;-88
2023/07/16 09:38:53;;;;;;;;;;;;;;;41.35;19.82;98121.19;5113006;28;19920;-89
2023/07/16 09:41:20;;;;;;;;;;;;;;;41.94;20.88;98116.88;5114396;28;19920;-90
2023/07/16 09:43:47;;;;;;;;;;;;;;;42.08;21.35;98118.41;5101166;28;19920;-87
2023/07/16 09:46:13;;;;;;;;;;;;;;;41.55;21.03;98114.75;5103986;28;19924;-88
2023/07/16 09:48:39;;;;;;;;;;;;;;;41.20;21.73;98120.91;5104556;28;19942;-89
2023/07/16 09:51:07;;;;;;;;;;;;;;;40.95;20.87;98119.53;5094617;28;19920;-90
2023/07/16 09:53:34;;;;;;;;;;;;;;;41.13;21.46;98115.81;5095044;28;20292;-89
2023/07/16 09:56:02;;;;;;;;;;;;;;;41.78;22.23;98112.22;5099844;28;19943;-88
2023/07/16 09:58:29;;;;;;;;;;;;;;;42.41;21.31;98119.78;5104493;28;19920;-89
2023/07/16 10:00:56;;;;;;;;;;;;;;;42.03;20.40;98116.41;5104518;28;19920;-87
2023/07/16 10:03:22;;;;;;;;;;;;;;;42.43;22.20;98120.00;5105676;28;20391;-90
2023/07/16 10:05:49;;;;;;;;;;;;;;;42.65;20.12;98122.34;5111326;28;19924;-87
2023/07/16 10:08:16;;;;;;;;;;;;;;;41.40;21.79;98117.44;5101723;28;20528;-89
2023/07/16 10:10:44;;;;;;;;;;;;;;;40.88;22.11;98125.97;5109205;28;19994;-87
2023/07/16 10:13:13;;;;;;;;;;;;;;;40.91;22.20;98119.09;5101998;28;20376;-88
2023/07/16 10:15:50;;;;;;;;;;;;;;;41.00;21.70;98122.34;5113172;28;19920;-88
2023/07/16 10:18:22;;;;;;;;;;;;;;;41.33;21.56;98110.19;5109665;28;19916;-87
2023/07/16 10:20:48;;;;;;;;;;;;;;;42.04;21.63;98109.28;5094351;28;20375;-87
2023/07/16 10:23:16;;;;;;;;;;;;;;;42.09;22.74;98108.44;5094341;28;19920;-87
2023/07/16 10:26:07;;;;;;;;;;;;;;;42.44;20.99;98104.97;5107958;28;19919;-90
2023/07/16 10:28:33;;;;;;;;;;;;;;;42.99;20.78;98104.97;5100020;28;19989;-89
2023/07/16 10:31:00;;;;;;;;;;;;;;;42.64;21.48;98107.13;5104431;28;19920;-88
2023/07/16 10:33:26;;;;;;;;;;;;;;;42.32;20.43;98111.56;5104936;28;20364;-89
2023/07/16 10:35:52;;;;;;;;;;;;;;;42.31;20.22;98107.94;5101955;28;19930;-88
2023/07/16 10:38:18;;;;;;;;;;;;;;;42.85;20.01;98107.16;5114188;28;19947;-89
2023/07/16 10:40:46;;;;;;;;;;;;;;;42.85;20.03;98104.25;5112196;28;20212;-89
2023/07/16 10:43:12;;;;;;;;;;;;;;;43.18;19.98;98100.50;5107425;28;19999;-90
2023/07/16 10:45:39;;;;;;;;;;;;;;;43.66;20.43;98109.72;5102798;28;20422;-89
2023/07/16 10:48:05;;;;;;;;;;;;;;;43.74;18.85;98108.44;5100783;28;19923;-88
2023/07/16 10:50:35;;;;;;;;;;;;;;;43.97;19.83;98109.31;5100269;28;19955;-88
2023/07/16 10:53:01;;;;;;;;;;;;;;;43.80;19.71;98106.16;5101654;28;20010;-89
2023/07/16 10:55:28;;;;;;;;;;;;;;;44.16;19.41;98102.50;5110675;28;20406;-94
2023/07/16 10:57:55;;;;;;;;;;;;;;;43.77;19.18;98110.19;5111113;28;19924;-93
2023/07/16 11:00:21;;;;;;;;;;;;;;;43.13;20.44;98101.41;5105551;28;19965;-94
2023/07/16 11:02:49;;;;;;;;;;;;;;;43.46;20.10;98096.88;5109940;28;20442;-88
2023/07/16 11:05:16;;;;;;;;;;;;;;;43.94;19.69;98101.00;5104391;28;19924;-91
2023/07/16 11:07:43;;;;;;;;;;;;;;;43.70;19.32;98098.56;5107828;28;19935;-91
2023/07/16 11:10:09;;;;;;;;;;;;;;;43.88;19.66;98098.28;5097948;28;19919;-92
2023/07/16 11:12:35;;;;;;;;;;;;;;;43.36;18.83;98095.84;5102630;28;19955;-93
2023/07/16 11:15:01;;;;;;;;;;;;;;;43.67;19.41;98097.59;5104664;28;19920;-92
2023/07/16 11:17:27;;;;;;;;;;;;;;;43.94;18.18;98092.34;5106862;28;19920;-93
2023/07/16 11:19:54;;;;;;;;;;;;;;;44.20;20.06;98094.97;5105528;28;19920;-93
2023/07/16 11:22:29;;;;;;;;;;;;;;;43.89;17.85;98090.38;5100986;28;19915;-91
2023/07/16 11:24:55;;;;;;;;;;;;;;;44.08;20.54;98090.09;5085290;28;19970;-89
2023/07/16 11:27:22;;;;;;;;;;;;;;;44.12;19.34;98088.38;5109599;28;19959;-88
2023/07/16 11:29:51;;;;;;;;;;;;;;;43.97;17.78;98085.41;5099465;28;20295;-89
2023/07/16 11:32:33;;;;;;;;;;;;;;;43.84;16.67;98080.53;5104517;28;20339;-90
2023/07/16 11:35:00;;;;;;;;;;;;;;;43.83;17.44;98081.84;5080633;28;19932;-89
2023/07/16 11:37:28;;;;;;;;;;;;;;;44.04;17.38;98083.88;5100388;28;20002;-87
2023/07/16 11:39:57;;;;;;;;;;;;;;;43.79;16.69;98072.78;5103103;28;19920;-90
2023/07/16 11:42:27;;;;;;;;;;;;;;;43.59;18.46;98084.41;5099363;28;19920;-91
2023/07/16 11:44:54;;;;;;;;;;;;;;;43.79;19.07;98078.56;5110237;28;19923;-91
2023/07/16 11:47:20;;;;;;;;;;;;;;;44.53;19.68;98079.41;5100367;28;19920;-92
2023/07/16 11:49:47;;;;;;;;;;;;;;;44.85;19.90;98076.03;5111295;28;19955;-91
2023/07/16 11:52:13;;;;;;;;;;;;;;;44.68;18.39;98075.00;5108053;28;20279;-91
2023/07/16 11:54:39;;;;;;;;;;;;;;;44.99;19.18;98071.56;5106154;28;20396;-91
2023/07/16 11:57:06;;;;;;;;;;;;;;;45.10;16.57;98067.50;5110788;28;19935;-93
2023/07/16 11:59:32;;;;;;;;;;;;;;;45.01;17.65;98068.09;5104662;28;19920;-93
2023/07/16 12:01:59;;;;;;;;;;;;;;;44.67;18.73;98082.16;5109964;28;19959;-92
2023/07/16 12:04:25;;;;;;;;;;;;;;;44.03;19.19;98070.75;5113861;28;19915;-91
2023/07/16 12:06:51;;;;;;;;;;;;;;;43.98;18.27;98073.25;5093902;28;19924;-92
2023/07/16 12:09:17;;;;;;;;;;;;;;;43.73;18.40;98068.50;5109663;28;19941;-92
2023/07/16 12:11:43;;;;;;;;;;;;;;;43.79;18.77;98080.69;5101697;28;20069;-93
2023/07/16 12:14:10;;;;;;;;;;;;;;;43.56;18.49;98071.09;5107950;28;20309;-93
2023/07/16 12:16:36;;;;;;;;;;;;;;;41.87;19.33;98069.25;5114643;28;19916;-93
2023/07/16 12:19:02;;;;;;;;;;;;;;;42.21;19.14;98065.66;5104590;28;19924;-93
2023/07/16 12:21:28;;;;;;;;;;;;;;;42.16;19.39;98076.00;5097062;28;19923;-90
2023/07/16 12:23:54;;;;;;;;;;;;;;;42.50;18.03;98073.13;5102423;28;19924;-90
2023/07/16 12:26:20;;;;;;;;;;;;;;;42.31;20.69;98069.63;5108484;28;19923;-91
2023/07/16 12:28:46;;;;;;;;;;;;;;;42.10;19.25;98066.69;5090482;28;20008;-90
2023/07/16 12:31:12;;;;;;;;;;;;;;;42.62;21.28;98066.47;5110245;28;19955;-90
2023/07/16 12:33:38;;;;;;;;;;;;;;;43.23;18.84;98056.22;5111150;28;20282;-90
2023/07/16 12:36:04;;;;;;;;;;;;;;;43.13;17.31;98057.31;5112359;28;20441;-92
2023/07/16 12:38:30;;;;;;;;;;;;;;;42.87;18.62;98055.34;5094403;28;19928;-90
2023/07/16 12:40:56;;;;;;;;;;;;;;;43.09;18.18;98051.09;5103898;28;20394;-93
2023/07/16 12:43:22;;;;;;;;;;;;;;;43.56;18.64;98048.72;5105552;28;20269;-91